Leandro Paganelli

Scout - Bari
28 Nov 2027
Sunday
Process

Personality

Adaptability (12) Ambition (13) Controversy (10) Loyalty (4) Pressure (11) Professionalism (8) Sportsmanship (14) Temperament (17)

Profile

Coaching Style Democratic
License National A
Determination 12
Man Management 6
Motivating 13
Discipline 8
Job Satisfaction
100%
Fatigue
0%
Role Scout
Wage 23.7K p/w
Contract 14.03.2030

Performance

Behaviour Good
Training Effectiveness
38%
Player Development
65%
Injury Prevention
35%
Tactical Implementation
45%

Recent Events

Recommended a transfer target now
Recommended a transfer target now
Recommended a transfer target now
Recommended a transfer target now
Recommended a transfer target now
Assessed a player now
Assessed a player now
Assessed a player now

Currently Monitoring

85
Player Club Status Ability Confidence Watched Last Observed Latest Vote
Josh King Newcastle United Active 136 / 152 40% 1 27.11.2027 -
Pedro Vian Seewald Dolomiti Bellunesi Active 105 / 102 40% 1 27.11.2027 -
Honest Ahanor Atalanta Active 126 / 144 40% 2 26.11.2027 -
Matvey Bardachev Zenit Active 112 / 115 40% 1 26.11.2027 -
Colin Guske Orlando City Active 110 / 98 40% 1 25.11.2027 -
Juan Manuel Villalba Tigre Active 128 / 125 40% 1 25.11.2027 -
Óscar Hinojosa Metropolitanos Active 89 / 89 40% 2 24.11.2027 -
Othniël Raterink Cagliari Active 108 / 123 40% 1 24.11.2027 -
Pedro Soma San Diego Football Club Active 99 / 115 40% 2 22.11.2027 -
Davide Bartesaghi AC Milan Active 126 / 140 40% 1 22.11.2027 -
Joaquín Nazar Maipú Active 82 / 91 40% 1 21.11.2027 -
Frederik Damkjer Viborg Active 93 / 102 40% 1 21.11.2027 -
Agustín De la Cuesta Racing Active 105 / 116 40% 2 20.11.2027 -
Matías Canedo Rampla Juniors Active 76 / 93 40% 1 20.11.2027 -
Oscar Steinke Brånby Hammarby Active 104 / 108 40% 3 18.11.2027 -
Sebastián Ramírez Aguilas Doradas Active 112 / 113 40% 1 18.11.2027 -
Ignacio Fernández Boston River Active 86 / 100 40% 2 15.11.2027 -
Yury Oyarzo Racing Active 100 / 102 40% 1 15.11.2027 -
Tobias Moi Lillestrom Active 99 / 111 40% 1 13.11.2027 -
Facundo Balatti Penarol Active 101 / 111 40% 1 13.11.2027 -
Salvador Blopá Sporting CP Active 129 / 124 40% 1 11.11.2027 -
Tiago Gordillo San Miguel Active 75 / 94 40% 1 10.11.2027 -
Lucas Camejo River Plate Active 89 / 92 40% 1 09.11.2027 -
Gideon Manaseh Ikorodu City Active 104 / 96 40% 1 09.11.2027 -
Malick Yalcouyé Brighton Active 128 / 135 40% 1 08.11.2027 -
Hugo Rojas Instituto Active 98 / 111 40% 1 08.11.2027 -
Julián Bazán New York Red Bulls Active 105 / 122 40% 1 07.11.2027 -
Kenan Busuladžić Malmo FF Active 108 / 122 40% 2 06.11.2027 -
Victor Hernandez Santa Fe Active 120 / 124 40% 1 06.11.2027 -
Onyeuche Ujunwa Ikorodu City Active 88 / 91 40% 1 05.11.2027 -
Matteo Palma Udinese Active 121 / 132 40% 1 04.11.2027 -
Matias Siltanen Malmo FF Active 122 / 129 40% 1 04.11.2027 -
Jamie Wähling Hibernians Active 88 / 90 40% 1 16.08.2027 -
Chibueze Oputa Rangers International Active 82 / 90 40% 1 16.08.2027 -
Fabian Tait Südtirol Active 101 / 113 58% 1 02.08.2027 -
Milan Roganović Racing Genk Negotiating 119 / 117 40% 1 05.07.2027 -
Matteo Cichella Frosinone Active 113 / 125 40% 1 05.07.2027 -
Rayan Elloumi Vancouver Whitecaps Active 78 / 89 40% 1 28.06.2027 -
Nathan Mbala FC Metz Active 88 / 104 40% 1 28.06.2027 -
Ousseynou Seck Randers Active 112 / 121 40% 1 22.06.2027 -
Leon Grgić Werder Bremen Active 125 / 129 40% 1 10.06.2027 -
Kirill Cheburakov Rostov Active 72 / 86 40% 1 10.06.2027 -
Mao Hosoya Olympique de Marseille Negotiating 134 / 135 67% 1 01.06.2027 Approve
Pedro de la Vega Columbus Crew Negotiating 133 / 134 66% 1 01.06.2027 Approve
Toni Fruk Anderlecht Negotiating 132 / 133 89% 1 01.06.2027 Approve
Konstantin Tyukavin Osasuna Active 132 / 133 66% 1 01.06.2027 Approve
Patrick Berg Lecce Negotiating 141 / 141 62% 1 01.06.2027 Approve
Walid Cheddira Avellino Active 132 / 121 40% 1 31.05.2027 -
Giorgi Kvernadze Frosinone Active 129 / 124 40% 5 27.05.2027 -
Luca Moro Padova Active 110 / 120 40% 2 27.05.2027 -
Dardan Shabanhaxhaj Rubin Active 123 / 118 40% 2 26.05.2027 -
Bernat Guiu Virtus Entella Active 129 / 115 40% 2 26.05.2027 -
Filip Stojilković Pisa Active 131 / 123 40% 2 25.05.2027 -
Giuseppe Di Serio Spezia Active 122 / 125 40% 1 24.05.2027 -
Vitinha Genoa Active 140 / 137 40% 2 20.05.2027 -
Filippo Distefano Empoli Active 118 / 115 40% 2 20.05.2027 -
David Romero Parma Active 127 / 126 40% 2 16.05.2027 -
Matija Frigan Parma Active 127 / 122 40% 5 16.05.2027 -
Ilyas Ansah Hull City Active 132 / 137 40% 3 14.05.2027 -
Lorenzo De Leo Renate Active 108 / 99 40% 2 14.05.2027 -
Lwanda Mbanjwa Platinum Stars Active 108 / 94 40% 1 14.05.2027 -
Tasos Douvikas Como Active 131 / 142 40% 2 11.05.2027 -
Camillo Tavernelli Arezzo Active 107 / 114 40% 2 08.05.2027 -
Konan N'Dri Lecce Active 127 / 123 40% 2 08.05.2027 -
Teboho Zwane Ajax Cape Town Active 85 / 107 40% 1 08.05.2027 -
Ahmed Khaled Paralimni Active 76 / 100 40% 1 08.05.2027 -
Idris Ajiya Nasarawa United Active 98 / 95 40% 1 07.05.2027 -
Willem Geubbels Lecce Active 137 / 124 40% 3 03.05.2027 -
Borna Knezović Casarano Active 98 / 111 40% 1 03.05.2027 -
Octávio Silva Trapani Active 91 / 82 40% 1 03.05.2027 -
Zakaria Aboukhlal Torino Active 125 / 138 40% 2 01.05.2027 -
Amin Sarr Hellas Verona Active 132 / 130 40% 3 30.04.2027 -
Brayan Gil Baltika Active 123 / 119 40% 1 29.04.2027 -
Simone Rabbi Ravenna Active 99 / 110 40% 2 28.04.2027 -
Emanuele Pecorino Catanzaro Active 109 / 110 40% 2 26.04.2027 -
Stiven Shpendi Empoli Active 133 / 118 40% 1 26.04.2027 -
Mathys Tel Tottenham Active 140 / 152 40% 1 16.04.2027 -
Emanuele Schimmenti Potenza Active 119 / 110 40% 1 13.04.2027 -
Evidence Makgopa Orlando Pirates Active 125 / 110 40% 2 09.04.2027 -
Armstrong Oko-Flex Levski Active 129 / 116 40% 1 05.04.2027 -
João Félix Dinamo Moscow Active 156 / 158 40% 1 02.04.2027 -
Yegor Golenkov Rostov Active 122 / 115 40% 1 30.03.2027 -
Tenton Yenne Baltika Active 101 / 111 40% 1 23.03.2027 -
Nicolás Andereggen Ethnikos Achnas Active 99 / 106 40% 1 18.03.2027 -
Bjorn Meijer Sampdoria Active 114 / 129 40% 1 20.01.2027 -